sensor_id;sensor_type;location;lat;lon;timestamp;P1;durP1;ratioP1;P2;durP2;ratioP2
5303;SDS011;2674;49.722;10.892;2022-10-26T00:00:47;7.00;;;4.70;;
5303;SDS011;2674;49.722;10.892;2022-10-26T00:03:14;8.83;;;4.60;;
5303;SDS011;2674;49.722;10.892;2022-10-26T00:05:41;8.60;;;4.30;;
5303;SDS011;2674;49.722;10.892;2022-10-26T00:08:07;5.13;;;4.63;;
5303;SDS011;2674;49.722;10.892;2022-10-26T00:10:34;5.67;;;4.43;;
5303;SDS011;2674;49.722;10.892;2022-10-26T00:13:02;8.17;;;3.63;;
5303;SDS011;2674;49.722;10.892;2022-10-26T00:15:29;11.83;;;4.90;;
5303;SDS011;2674;49.722;10.892;2022-10-26T00:17:55;7.23;;;4.90;;
5303;SDS011;2674;49.722;10.892;2022-10-26T00:20:21;9.70;;;4.83;;
5303;SDS011;2674;49.722;10.892;2022-10-26T00:22:47;5.27;;;4.70;;
5303;SDS011;2674;49.722;10.892;2022-10-26T00:25:13;9.77;;;5.07;;
5303;SDS011;2674;49.722;10.892;2022-10-26T00:27:39;12.13;;;4.50;;
5303;SDS011;2674;49.722;10.892;2022-10-26T00:30:05;12.10;;;4.57;;
5303;SDS011;2674;49.722;10.892;2022-10-26T00:32:32;12.87;;;4.60;;
5303;SDS011;2674;49.722;10.892;2022-10-26T00:34:58;8.23;;;4.47;;
5303;SDS011;2674;49.722;10.892;2022-10-26T00:37:24;5.00;;;4.00;;
5303;SDS011;2674;49.722;10.892;2022-10-26T00:39:50;10.07;;;4.10;;
5303;SDS011;2674;49.722;10.892;2022-10-26T00:42:20;10.93;;;5.27;;
5303;SDS011;2674;49.722;10.892;2022-10-26T00:47:29;6.33;;;4.30;;
5303;SDS011;2674;49.722;10.892;2022-10-26T00:50:00;13.27;;;5.37;;
5303;SDS011;2674;49.722;10.892;2022-10-26T00:52:30;7.57;;;4.90;;
5303;SDS011;2674;49.722;10.892;2022-10-26T00:54:57;10.27;;;5.67;;
5303;SDS011;2674;49.722;10.892;2022-10-26T00:57:23;13.10;;;5.60;;
5303;SDS011;2674;49.722;10.892;2022-10-26T00:59:50;7.50;;;4.70;;
5303;SDS011;2674;49.722;10.892;2022-10-26T01:02:20;8.37;;;4.80;;
5303;SDS011;2674;49.722;10.892;2022-10-26T01:04:46;11.10;;;4.40;;
5303;SDS011;2674;49.722;10.892;2022-10-26T01:07:12;13.80;;;4.80;;
5303;SDS011;2674;49.722;10.892;2022-10-26T01:09:38;5.80;;;5.20;;
5303;SDS011;2674;49.722;10.892;2022-10-26T01:12:04;6.00;;;4.63;;
5303;SDS011;2674;49.722;10.892;2022-10-26T01:14:30;14.20;;;5.20;;
5303;SDS011;2674;49.722;10.892;2022-10-26T01:17:07;10.67;;;4.40;;
5303;SDS011;2674;49.722;10.892;2022-10-26T01:22:50;8.63;;;3.70;;
5303;SDS011;2674;49.722;10.892;2022-10-26T01:28:24;8.97;;;4.43;;
5303;SDS011;2674;49.722;10.892;2022-10-26T01:31:10;9.83;;;3.77;;
5303;SDS011;2674;49.722;10.892;2022-10-26T01:33:43;9.20;;;4.50;;
5303;SDS011;2674;49.722;10.892;2022-10-26T01:36:44;8.33;;;4.30;;
5303;SDS011;2674;49.722;10.892;2022-10-26T01:39:21;8.40;;;3.67;;
5303;SDS011;2674;49.722;10.892;2022-10-26T01:42:11;9.80;;;3.40;;
5303;SDS011;2674;49.722;10.892;2022-10-26T01:44:48;7.53;;;4.37;;
5303;SDS011;2674;49.722;10.892;2022-10-26T01:47:29;5.50;;;3.23;;
5303;SDS011;2674;49.722;10.892;2022-10-26T01:49:57;5.70;;;4.37;;
5303;SDS011;2674;49.722;10.892;2022-10-26T01:52:24;10.43;;;3.77;;
5303;SDS011;2674;49.722;10.892;2022-10-26T01:54:50;6.00;;;3.80;;
5303;SDS011;2674;49.722;10.892;2022-10-26T01:57:24;4.47;;;3.97;;
5303;SDS011;2674;49.722;10.892;2022-10-26T02:07:55;4.23;;;3.80;;
5303;SDS011;2674;49.722;10.892;2022-10-26T02:13:46;10.50;;;3.87;;
5303;SDS011;2674;49.722;10.892;2022-10-26T02:16:33;2.97;;;2.77;;
5303;SDS011;2674;49.722;10.892;2022-10-26T02:22:12;9.07;;;3.87;;
5303;SDS011;2674;49.722;10.892;2022-10-26T02:24:53;8.50;;;4.30;;
5303;SDS011;2674;49.722;10.892;2022-10-26T02:27:23;10.93;;;3.60;;
5303;SDS011;2674;49.722;10.892;2022-10-26T02:29:51;8.07;;;3.47;;
5303;SDS011;2674;49.722;10.892;2022-10-26T02:32:19;9.37;;;4.33;;
5303;SDS011;2674;49.722;10.892;2022-10-26T02:34:49;13.43;;;4.77;;
5303;SDS011;2674;49.722;10.892;2022-10-26T02:37:17;6.20;;;3.90;;
5303;SDS011;2674;49.722;10.892;2022-10-26T02:39:44;11.97;;;4.70;;
5303;SDS011;2674;49.722;10.892;2022-10-26T02:42:13;5.37;;;3.70;;
5303;SDS011;2674;49.722;10.892;2022-10-26T02:44:44;9.27;;;4.47;;
5303;SDS011;2674;49.722;10.892;2022-10-26T02:47:31;9.60;;;4.27;;
5303;SDS011;2674;49.722;10.892;2022-10-26T02:49:58;5.60;;;3.53;;
5303;SDS011;2674;49.722;10.892;2022-10-26T02:55:03;11.17;;;4.03;;
5303;SDS011;2674;49.722;10.892;2022-10-26T02:57:35;11.53;;;4.40;;
5303;SDS011;2674;49.722;10.892;2022-10-26T03:00:11;12.47;;;4.00;;
5303;SDS011;2674;49.722;10.892;2022-10-26T03:02:41;10.83;;;3.40;;
5303;SDS011;2674;49.722;10.892;2022-10-26T03:05:27;9.10;;;3.87;;
5303;SDS011;2674;49.722;10.892;2022-10-26T03:07:57;8.43;;;4.47;;
5303;SDS011;2674;49.722;10.892;2022-10-26T03:10:24;5.70;;;3.50;;
5303;SDS011;2674;49.722;10.892;2022-10-26T03:12:50;6.30;;;5.07;;
5303;SDS011;2674;49.722;10.892;2022-10-26T03:15:16;6.47;;;4.30;;
5303;SDS011;2674;49.722;10.892;2022-10-26T03:17:42;5.80;;;5.30;;
5303;SDS011;2674;49.722;10.892;2022-10-26T03:20:08;3.77;;;3.37;;
5303;SDS011;2674;49.722;10.892;2022-10-26T03:22:34;6.97;;;3.20;;
5303;SDS011;2674;49.722;10.892;2022-10-26T03:25:00;9.03;;;3.30;;
5303;SDS011;2674;49.722;10.892;2022-10-26T03:27:26;4.70;;;3.30;;
5303;SDS011;2674;49.722;10.892;2022-10-26T03:29:52;5.10;;;3.30;;
5303;SDS011;2674;49.722;10.892;2022-10-26T03:32:18;5.07;;;3.57;;
5303;SDS011;2674;49.722;10.892;2022-10-26T03:34:44;4.97;;;3.30;;
5303;SDS011;2674;49.722;10.892;2022-10-26T03:37:10;6.50;;;3.73;;
5303;SDS011;2674;49.722;10.892;2022-10-26T03:39:36;5.00;;;3.70;;
5303;SDS011;2674;49.722;10.892;2022-10-26T03:42:02;6.43;;;3.70;;
5303;SDS011;2674;49.722;10.892;2022-10-26T03:44:28;4.87;;;3.47;;
5303;SDS011;2674;49.722;10.892;2022-10-26T03:46:54;5.97;;;3.57;;
5303;SDS011;2674;49.722;10.892;2022-10-26T03:49:19;7.40;;;3.00;;
5303;SDS011;2674;49.722;10.892;2022-10-26T03:51:45;8.20;;;3.50;;
5303;SDS011;2674;49.722;10.892;2022-10-26T03:54:11;7.50;;;3.50;;
5303;SDS011;2674;49.722;10.892;2022-10-26T03:56:37;6.83;;;3.17;;
5303;SDS011;2674;49.722;10.892;2022-10-26T03:59:03;3.67;;;3.37;;
5303;SDS011;2674;49.722;10.892;2022-10-26T04:01:29;4.70;;;3.20;;
5303;SDS011;2674;49.722;10.892;2022-10-26T04:03:55;9.13;;;4.67;;
5303;SDS011;2674;49.722;10.892;2022-10-26T04:06:20;3.47;;;3.17;;
5303;SDS011;2674;49.722;10.892;2022-10-26T04:08:46;6.13;;;3.10;;
5303;SDS011;2674;49.722;10.892;2022-10-26T04:11:12;3.57;;;2.63;;
5303;SDS011;2674;49.722;10.892;2022-10-26T04:13:38;8.03;;;3.40;;
5303;SDS011;2674;49.722;10.892;2022-10-26T04:16:04;7.13;;;3.10;;
5303;SDS011;2674;49.722;10.892;2022-10-26T04:18:30;4.40;;;3.07;;
5303;SDS011;2674;49.722;10.892;2022-10-26T04:20:59;6.57;;;3.77;;
5303;SDS011;2674;49.722;10.892;2022-10-26T04:23:26;3.90;;;3.33;;
5303;SDS011;2674;49.722;10.892;2022-10-26T04:25:51;4.17;;;2.97;;
5303;SDS011;2674;49.722;10.892;2022-10-26T04:28:17;5.87;;;2.80;;
5303;SDS011;2674;49.722;10.892;2022-10-26T04:30:43;4.53;;;2.77;;
5303;SDS011;2674;49.722;10.892;2022-10-26T04:33:11;3.83;;;3.30;;
5303;SDS011;2674;49.722;10.892;2022-10-26T04:35:37;7.67;;;3.70;;
5303;SDS011;2674;49.722;10.892;2022-10-26T04:38:03;3.33;;;3.03;;
5303;SDS011;2674;49.722;10.892;2022-10-26T04:40:31;6.77;;;3.33;;
5303;SDS011;2674;49.722;10.892;2022-10-26T04:42:58;5.00;;;3.10;;
5303;SDS011;2674;49.722;10.892;2022-10-26T04:45:25;3.60;;;3.30;;
5303;SDS011;2674;49.722;10.892;2022-10-26T04:48:02;7.27;;;3.47;;
5303;SDS011;2674;49.722;10.892;2022-10-26T04:50:28;9.43;;;3.70;;
5303;SDS011;2674;49.722;10.892;2022-10-26T04:52:54;10.33;;;3.40;;
5303;SDS011;2674;49.722;10.892;2022-10-26T04:55:20;3.10;;;2.90;;
5303;SDS011;2674;49.722;10.892;2022-10-26T04:57:46;9.80;;;3.87;;
5303;SDS011;2674;49.722;10.892;2022-10-26T05:00:12;4.30;;;3.50;;
5303;SDS011;2674;49.722;10.892;2022-10-26T05:02:38;12.10;;;4.00;;
5303;SDS011;2674;49.722;10.892;2022-10-26T05:05:04;4.07;;;3.67;;
5303;SDS011;2674;49.722;10.892;2022-10-26T05:07:30;4.43;;;3.30;;
5303;SDS011;2674;49.722;10.892;2022-10-26T05:09:55;7.00;;;3.47;;
5303;SDS011;2674;49.722;10.892;2022-10-26T05:12:22;13.40;;;3.67;;
5303;SDS011;2674;49.722;10.892;2022-10-26T05:14:48;8.70;;;2.90;;
5303;SDS011;2674;49.722;10.892;2022-10-26T05:17:13;8.20;;;3.07;;
5303;SDS011;2674;49.722;10.892;2022-10-26T05:19:39;7.17;;;3.40;;
5303;SDS011;2674;49.722;10.892;2022-10-26T05:22:05;6.70;;;3.33;;
5303;SDS011;2674;49.722;10.892;2022-10-26T05:24:31;15.07;;;3.90;;
5303;SDS011;2674;49.722;10.892;2022-10-26T05:26:57;9.93;;;3.97;;
5303;SDS011;2674;49.722;10.892;2022-10-26T05:29:23;5.50;;;3.90;;
5303;SDS011;2674;49.722;10.892;2022-10-26T05:31:50;4.53;;;3.80;;
5303;SDS011;2674;49.722;10.892;2022-10-26T05:34:16;3.30;;;2.90;;
5303;SDS011;2674;49.722;10.892;2022-10-26T05:36:42;4.90;;;3.47;;
5303;SDS011;2674;49.722;10.892;2022-10-26T05:39:08;5.50;;;3.70;;
5303;SDS011;2674;49.722;10.892;2022-10-26T05:41:34;9.27;;;3.50;;
5303;SDS011;2674;49.722;10.892;2022-10-26T05:44:00;6.53;;;3.40;;
5303;SDS011;2674;49.722;10.892;2022-10-26T05:46:26;9.20;;;3.90;;
5303;SDS011;2674;49.722;10.892;2022-10-26T05:48:52;4.30;;;3.90;;
5303;SDS011;2674;49.722;10.892;2022-10-26T05:51:18;9.13;;;3.67;;
5303;SDS011;2674;49.722;10.892;2022-10-26T05:53:43;8.60;;;4.40;;
5303;SDS011;2674;49.722;10.892;2022-10-26T05:56:52;5.60;;;4.57;;
5303;SDS011;2674;49.722;10.892;2022-10-26T05:59:03;10.70;;;4.17;;
5303;SDS011;2674;49.722;10.892;2022-10-26T06:01:43;7.37;;;5.63;;
5303;SDS011;2674;49.722;10.892;2022-10-26T06:05:03;4.80;;;4.40;;
5303;SDS011;2674;49.722;10.892;2022-10-26T06:07:13;5.53;;;4.97;;
5303;SDS011;2674;49.722;10.892;2022-10-26T06:09:41;4.67;;;4.00;;
5303;SDS011;2674;49.722;10.892;2022-10-26T06:12:08;6.80;;;3.37;;
5303;SDS011;2674;49.722;10.892;2022-10-26T06:14:35;3.43;;;2.70;;
5303;SDS011;2674;49.722;10.892;2022-10-26T06:31:24;5.90;;;2.73;;
5303;SDS011;2674;49.722;10.892;2022-10-26T06:33:50;2.77;;;2.40;;
5303;SDS011;2674;49.722;10.892;2022-10-26T06:36:22;10.00;;;2.50;;
5303;SDS011;2674;49.722;10.892;2022-10-26T06:39:01;5.00;;;3.60;;
5303;SDS011;2674;49.722;10.892;2022-10-26T06:41:30;5.77;;;3.10;;
5303;SDS011;2674;49.722;10.892;2022-10-26T06:43:57;6.03;;;3.23;;
5303;SDS011;2674;49.722;10.892;2022-10-26T06:46:35;3.10;;;2.90;;
5303;SDS011;2674;49.722;10.892;2022-10-26T06:51:48;4.77;;;2.90;;
5303;SDS011;2674;49.722;10.892;2022-10-26T06:54:24;5.80;;;2.50;;
5303;SDS011;2674;49.722;10.892;2022-10-26T06:57:00;2.40;;;2.20;;
5303;SDS011;2674;49.722;10.892;2022-10-26T06:59:37;11.90;;;2.57;;
5303;SDS011;2674;49.722;10.892;2022-10-26T07:02:12;3.30;;;2.80;;
5303;SDS011;2674;49.722;10.892;2022-10-26T07:04:40;6.37;;;4.17;;
5303;SDS011;2674;49.722;10.892;2022-10-26T07:07:28;2.30;;;2.20;;
5303;SDS011;2674;49.722;10.892;2022-10-26T07:09:54;4.97;;;2.27;;
5303;SDS011;2674;49.722;10.892;2022-10-26T07:12:20;4.73;;;2.40;;
5303;SDS011;2674;49.722;10.892;2022-10-26T07:14:46;3.93;;;2.13;;
5303;SDS011;2674;49.722;10.892;2022-10-26T07:17:12;6.10;;;3.00;;
5303;SDS011;2674;49.722;10.892;2022-10-26T07:19:38;2.50;;;2.23;;
5303;SDS011;2674;49.722;10.892;2022-10-26T07:22:04;2.90;;;2.30;;
5303;SDS011;2674;49.722;10.892;2022-10-26T07:24:31;2.70;;;2.37;;
5303;SDS011;2674;49.722;10.892;2022-10-26T07:26:57;2.43;;;2.20;;
5303;SDS011;2674;49.722;10.892;2022-10-26T07:29:23;4.87;;;2.80;;
5303;SDS011;2674;49.722;10.892;2022-10-26T07:31:51;5.47;;;2.80;;
5303;SDS011;2674;49.722;10.892;2022-10-26T07:34:17;2.30;;;2.10;;
5303;SDS011;2674;49.722;10.892;2022-10-26T07:36:43;4.50;;;2.73;;
5303;SDS011;2674;49.722;10.892;2022-10-26T07:39:09;3.47;;;3.17;;
5303;SDS011;2674;49.722;10.892;2022-10-26T07:41:35;9.00;;;4.93;;
5303;SDS011;2674;49.722;10.892;2022-10-26T07:44:03;11.53;;;3.30;;
5303;SDS011;2674;49.722;10.892;2022-10-26T07:46:28;4.07;;;2.50;;
5303;SDS011;2674;49.722;10.892;2022-10-26T07:48:54;7.97;;;3.13;;
5303;SDS011;2674;49.722;10.892;2022-10-26T07:51:20;3.77;;;3.17;;
5303;SDS011;2674;49.722;10.892;2022-10-26T07:53:46;6.17;;;3.50;;
5303;SDS011;2674;49.722;10.892;2022-10-26T07:56:12;4.80;;;3.70;;
5303;SDS011;2674;49.722;10.892;2022-10-26T07:58:38;6.13;;;3.13;;
5303;SDS011;2674;49.722;10.892;2022-10-26T08:01:05;4.63;;;2.70;;
5303;SDS011;2674;49.722;10.892;2022-10-26T08:03:36;3.90;;;3.50;;
5303;SDS011;2674;49.722;10.892;2022-10-26T08:06:02;4.87;;;2.87;;
5303;SDS011;2674;49.722;10.892;2022-10-26T08:08:29;4.83;;;3.57;;
5303;SDS011;2674;49.722;10.892;2022-10-26T08:10:56;6.17;;;4.20;;
5303;SDS011;2674;49.722;10.892;2022-10-26T08:13:22;4.30;;;2.93;;
5303;SDS011;2674;49.722;10.892;2022-10-26T08:15:48;8.20;;;3.43;;
5303;SDS011;2674;49.722;10.892;2022-10-26T08:18:14;5.77;;;3.10;;
5303;SDS011;2674;49.722;10.892;2022-10-26T08:20:40;3.57;;;2.90;;
5303;SDS011;2674;49.722;10.892;2022-10-26T08:23:07;22.77;;;5.67;;
5303;SDS011;2674;49.722;10.892;2022-10-26T08:25:33;6.77;;;3.20;;
5303;SDS011;2674;49.722;10.892;2022-10-26T08:28:02;4.00;;;3.60;;
5303;SDS011;2674;49.722;10.892;2022-10-26T08:30:29;7.60;;;2.60;;
5303;SDS011;2674;49.722;10.892;2022-10-26T08:32:59;7.47;;;3.03;;
5303;SDS011;2674;49.722;10.892;2022-10-26T08:38:02;3.70;;;3.30;;
5303;SDS011;2674;49.722;10.892;2022-10-26T08:40:32;4.10;;;3.07;;
5303;SDS011;2674;49.722;10.892;2022-10-26T08:43:01;3.33;;;2.70;;
5303;SDS011;2674;49.722;10.892;2022-10-26T08:45:35;6.03;;;3.10;;
5303;SDS011;2674;49.722;10.892;2022-10-26T08:48:08;5.00;;;3.50;;
5303;SDS011;2674;49.722;10.892;2022-10-26T08:50:41;2.63;;;2.47;;
5303;SDS011;2674;49.722;10.892;2022-10-26T08:55:45;10.43;;;2.93;;
5303;SDS011;2674;49.722;10.892;2022-10-26T08:58:20;4.43;;;3.10;;
5303;SDS011;2674;49.722;10.892;2022-10-26T09:00:50;7.87;;;3.10;;
5303;SDS011;2674;49.722;10.892;2022-10-26T09:03:17;3.70;;;3.17;;
5303;SDS011;2674;49.722;10.892;2022-10-26T09:08:39;7.37;;;3.10;;
5303;SDS011;2674;49.722;10.892;2022-10-26T09:14:16;5.20;;;2.80;;
5303;SDS011;2674;49.722;10.892;2022-10-26T09:17:02;3.17;;;2.63;;
5303;SDS011;2674;49.722;10.892;2022-10-26T09:19:58;11.87;;;3.90;;
5303;SDS011;2674;49.722;10.892;2022-10-26T09:25:22;3.23;;;2.37;;
5303;SDS011;2674;49.722;10.892;2022-10-26T09:27:55;6.27;;;2.63;;
5303;SDS011;2674;49.722;10.892;2022-10-26T09:30:24;6.03;;;2.50;;
5303;SDS011;2674;49.722;10.892;2022-10-26T09:32:55;8.63;;;2.60;;
5303;SDS011;2674;49.722;10.892;2022-10-26T09:35:28;5.97;;;2.77;;
5303;SDS011;2674;49.722;10.892;2022-10-26T09:43:45;4.43;;;2.47;;
5303;SDS011;2674;49.722;10.892;2022-10-26T09:46:39;4.80;;;2.90;;
5303;SDS011;2674;49.722;10.892;2022-10-26T09:49:31;4.27;;;2.90;;
5303;SDS011;2674;49.722;10.892;2022-10-26T09:52:06;3.53;;;2.77;;
5303;SDS011;2674;49.722;10.892;2022-10-26T09:54:32;5.97;;;2.83;;
5303;SDS011;2674;49.722;10.892;2022-10-26T09:56:58;5.10;;;2.60;;
5303;SDS011;2674;49.722;10.892;2022-10-26T09:59:26;4.20;;;2.70;;
5303;SDS011;2674;49.722;10.892;2022-10-26T10:01:53;4.57;;;3.00;;
5303;SDS011;2674;49.722;10.892;2022-10-26T10:04:20;2.90;;;2.40;;
5303;SDS011;2674;49.722;10.892;2022-10-26T10:09:28;7.07;;;2.77;;
5303;SDS011;2674;49.722;10.892;2022-10-26T10:11:54;5.63;;;2.73;;
5303;SDS011;2674;49.722;10.892;2022-10-26T10:14:23;9.83;;;2.60;;
5303;SDS011;2674;49.722;10.892;2022-10-26T10:17:19;13.30;;;2.80;;
5303;SDS011;2674;49.722;10.892;2022-10-26T10:19:46;5.80;;;2.90;;
5303;SDS011;2674;49.722;10.892;2022-10-26T10:24:57;2.70;;;2.47;;
5303;SDS011;2674;49.722;10.892;2022-10-26T10:27:25;4.53;;;2.70;;
5303;SDS011;2674;49.722;10.892;2022-10-26T10:29:55;3.67;;;2.47;;
5303;SDS011;2674;49.722;10.892;2022-10-26T10:32:27;5.80;;;2.63;;
5303;SDS011;2674;49.722;10.892;2022-10-26T10:34:58;4.60;;;3.63;;
5303;SDS011;2674;49.722;10.892;2022-10-26T10:37:26;11.50;;;2.73;;
5303;SDS011;2674;49.722;10.892;2022-10-26T10:40:16;5.70;;;2.27;;
5303;SDS011;2674;49.722;10.892;2022-10-26T10:42:46;8.90;;;3.43;;
5303;SDS011;2674;49.722;10.892;2022-10-26T10:45:18;5.23;;;2.73;;
5303;SDS011;2674;49.722;10.892;2022-10-26T10:53:35;8.83;;;2.80;;
5303;SDS011;2674;49.722;10.892;2022-10-26T10:59:18;6.60;;;2.77;;
5303;SDS011;2674;49.722;10.892;2022-10-26T11:02:16;7.93;;;2.53;;
5303;SDS011;2674;49.722;10.892;2022-10-26T11:08:08;9.63;;;2.60;;
5303;SDS011;2674;49.722;10.892;2022-10-26T11:10:39;5.03;;;2.33;;
5303;SDS011;2674;49.722;10.892;2022-10-26T11:16:02;7.63;;;3.57;;
5303;SDS011;2674;49.722;10.892;2022-10-26T11:18:33;6.20;;;2.80;;
5303;SDS011;2674;49.722;10.892;2022-10-26T11:23:36;3.77;;;2.40;;
5303;SDS011;2674;49.722;10.892;2022-10-26T11:26:29;4.93;;;2.50;;
5303;SDS011;2674;49.722;10.892;2022-10-26T11:32:21;6.93;;;2.60;;
5303;SDS011;2674;49.722;10.892;2022-10-26T11:42:41;8.00;;;2.33;;
5303;SDS011;2674;49.722;10.892;2022-10-26T11:45:14;4.53;;;2.33;;
5303;SDS011;2674;49.722;10.892;2022-10-26T11:47:50;4.10;;;2.30;;
5303;SDS011;2674;49.722;10.892;2022-10-26T11:50:22;4.43;;;2.27;;
5303;SDS011;2674;49.722;10.892;2022-10-26T11:53:01;2.60;;;2.10;;
5303;SDS011;2674;49.722;10.892;2022-10-26T11:55:38;9.10;;;2.50;;
5303;SDS011;2674;49.722;10.892;2022-10-26T11:58:05;5.20;;;2.83;;
5303;SDS011;2674;49.722;10.892;2022-10-26T12:00:34;8.93;;;2.07;;
5303;SDS011;2674;49.722;10.892;2022-10-26T12:03:24;14.00;;;2.80;;
5303;SDS011;2674;49.722;10.892;2022-10-26T12:05:55;4.40;;;2.20;;
5303;SDS011;2674;49.722;10.892;2022-10-26T12:19:53;4.87;;;2.03;;
5303;SDS011;2674;49.722;10.892;2022-10-26T12:22:21;4.83;;;2.40;;
5303;SDS011;2674;49.722;10.892;2022-10-26T12:25:17;3.57;;;2.10;;
5303;SDS011;2674;49.722;10.892;2022-10-26T13:15:17;9.70;;;3.40;;
5303;SDS011;2674;49.722;10.892;2022-10-26T13:17:51;6.57;;;2.40;;
5303;SDS011;2674;49.722;10.892;2022-10-26T13:20:50;4.80;;;2.43;;
5303;SDS011;2674;49.722;10.892;2022-10-26T13:23:40;3.90;;;2.13;;
5303;SDS011;2674;49.722;10.892;2022-10-26T13:28:44;4.83;;;2.37;;
5303;SDS011;2674;49.722;10.892;2022-10-26T13:33:43;6.00;;;2.50;;
5303;SDS011;2674;49.722;10.892;2022-10-26T13:36:16;6.90;;;2.50;;
5303;SDS011;2674;49.722;10.892;2022-10-26T13:38:47;8.13;;;2.67;;
5303;SDS011;2674;49.722;10.892;2022-10-26T13:41:16;4.80;;;2.33;;
5303;SDS011;2674;49.722;10.892;2022-10-26T13:43:56;6.87;;;2.50;;
5303;SDS011;2674;49.722;10.892;2022-10-26T13:46:31;12.20;;;3.50;;
5303;SDS011;2674;49.722;10.892;2022-10-26T13:49:10;6.20;;;2.27;;
5303;SDS011;2674;49.722;10.892;2022-10-26T13:51:43;6.90;;;2.20;;
5303;SDS011;2674;49.722;10.892;2022-10-26T13:54:18;10.33;;;3.03;;
5303;SDS011;2674;49.722;10.892;2022-10-26T13:57:01;10.43;;;2.37;;
5303;SDS011;2674;49.722;10.892;2022-10-26T13:59:46;6.23;;;2.70;;
5303;SDS011;2674;49.722;10.892;2022-10-26T14:02:25;2.43;;;2.00;;
5303;SDS011;2674;49.722;10.892;2022-10-26T14:05:01;15.03;;;3.20;;
5303;SDS011;2674;49.722;10.892;2022-10-26T14:10:35;4.30;;;2.30;;
5303;SDS011;2674;49.722;10.892;2022-10-26T14:13:08;11.10;;;3.00;;
5303;SDS011;2674;49.722;10.892;2022-10-26T14:15:42;6.50;;;2.80;;
5303;SDS011;2674;49.722;10.892;2022-10-26T14:18:20;12.53;;;3.10;;
5303;SDS011;2674;49.722;10.892;2022-10-26T14:21:02;8.63;;;2.83;;
5303;SDS011;2674;49.722;10.892;2022-10-26T14:23:32;6.23;;;2.70;;
5303;SDS011;2674;49.722;10.892;2022-10-26T14:26:17;3.67;;;2.07;;
5303;SDS011;2674;49.722;10.892;2022-10-26T14:28:46;3.03;;;2.10;;
5303;SDS011;2674;49.722;10.892;2022-10-26T14:31:21;11.57;;;2.83;;
5303;SDS011;2674;49.722;10.892;2022-10-26T14:33:49;4.83;;;2.50;;
5303;SDS011;2674;49.722;10.892;2022-10-26T14:36:16;11.43;;;3.13;;
5303;SDS011;2674;49.722;10.892;2022-10-26T14:38:45;5.63;;;3.00;;
5303;SDS011;2674;49.722;10.892;2022-10-26T14:41:15;4.70;;;2.40;;
5303;SDS011;2674;49.722;10.892;2022-10-26T14:43:42;8.90;;;2.37;;
5303;SDS011;2674;49.722;10.892;2022-10-26T14:46:15;9.37;;;2.70;;
5303;SDS011;2674;49.722;10.892;2022-10-26T14:48:53;11.37;;;2.80;;
5303;SDS011;2674;49.722;10.892;2022-10-26T14:51:25;9.80;;;3.00;;
5303;SDS011;2674;49.722;10.892;2022-10-26T14:53:58;6.90;;;3.17;;
5303;SDS011;2674;49.722;10.892;2022-10-26T15:01:57;11.93;;;4.23;;
5303;SDS011;2674;49.722;10.892;2022-10-26T15:04:36;8.00;;;4.53;;
5303;SDS011;2674;49.722;10.892;2022-10-26T15:09:37;9.10;;;4.63;;
5303;SDS011;2674;49.722;10.892;2022-10-26T15:12:06;12.10;;;6.80;;
5303;SDS011;2674;49.722;10.892;2022-10-26T15:17:42;17.30;;;7.87;;
5303;SDS011;2674;49.722;10.892;2022-10-26T15:20:17;12.70;;;6.60;;
5303;SDS011;2674;49.722;10.892;2022-10-26T15:22:53;13.70;;;5.70;;
5303;SDS011;2674;49.722;10.892;2022-10-26T15:25:21;13.60;;;5.60;;
5303;SDS011;2674;49.722;10.892;2022-10-26T15:27:53;11.10;;;5.23;;
5303;SDS011;2674;49.722;10.892;2022-10-26T15:32:48;11.80;;;3.73;;
5303;SDS011;2674;49.722;10.892;2022-10-26T15:35:22;8.90;;;3.53;;
5303;SDS011;2674;49.722;10.892;2022-10-26T15:37:52;14.93;;;4.03;;
5303;SDS011;2674;49.722;10.892;2022-10-26T15:40:19;12.53;;;4.40;;
5303;SDS011;2674;49.722;10.892;2022-10-26T15:42:48;10.17;;;7.00;;
5303;SDS011;2674;49.722;10.892;2022-10-26T15:47:49;18.00;;;8.67;;
5303;SDS011;2674;49.722;10.892;2022-10-26T15:50:23;16.13;;;9.20;;
5303;SDS011;2674;49.722;10.892;2022-10-26T15:53:01;16.40;;;7.70;;
5303;SDS011;2674;49.722;10.892;2022-10-26T15:55:32;20.40;;;8.63;;
5303;SDS011;2674;49.722;10.892;2022-10-26T15:57:59;11.27;;;7.67;;
5303;SDS011;2674;49.722;10.892;2022-10-26T16:00:25;15.30;;;6.40;;
5303;SDS011;2674;49.722;10.892;2022-10-26T16:02:51;10.33;;;6.20;;
5303;SDS011;2674;49.722;10.892;2022-10-26T16:05:17;16.43;;;6.37;;
5303;SDS011;2674;49.722;10.892;2022-10-26T16:07:44;9.87;;;6.13;;
5303;SDS011;2674;49.722;10.892;2022-10-26T16:10:13;13.97;;;7.20;;
5303;SDS011;2674;49.722;10.892;2022-10-26T16:12:57;8.70;;;5.53;;
5303;SDS011;2674;49.722;10.892;2022-10-26T16:15:23;12.27;;;7.43;;
5303;SDS011;2674;49.722;10.892;2022-10-26T16:17:49;9.90;;;6.80;;
5303;SDS011;2674;49.722;10.892;2022-10-26T16:20:22;12.47;;;5.90;;
5303;SDS011;2674;49.722;10.892;2022-10-26T16:22:51;8.10;;;4.40;;
5303;SDS011;2674;49.722;10.892;2022-10-26T16:25:18;4.30;;;3.40;;
5303;SDS011;2674;49.722;10.892;2022-10-26T16:27:46;14.80;;;5.00;;
5303;SDS011;2674;49.722;10.892;2022-10-26T16:30:13;16.37;;;5.70;;
5303;SDS011;2674;49.722;10.892;2022-10-26T16:32:39;18.23;;;4.70;;
5303;SDS011;2674;49.722;10.892;2022-10-26T16:35:06;11.53;;;6.47;;
5303;SDS011;2674;49.722;10.892;2022-10-26T16:37:33;12.00;;;5.90;;
5303;SDS011;2674;49.722;10.892;2022-10-26T16:39:59;8.27;;;5.00;;
5303;SDS011;2674;49.722;10.892;2022-10-26T16:42:25;12.00;;;5.90;;
5303;SDS011;2674;49.722;10.892;2022-10-26T16:44:52;14.07;;;8.30;;
5303;SDS011;2674;49.722;10.892;2022-10-26T16:47:18;28.83;;;14.23;;
5303;SDS011;2674;49.722;10.892;2022-10-26T16:49:44;28.97;;;16.47;;
5303;SDS011;2674;49.722;10.892;2022-10-26T16:52:10;40.40;;;21.80;;
5303;SDS011;2674;49.722;10.892;2022-10-26T16:54:37;51.23;;;27.40;;
5303;SDS011;2674;49.722;10.892;2022-10-26T16:57:03;45.83;;;24.67;;
5303;SDS011;2674;49.722;10.892;2022-10-26T16:59:29;38.13;;;19.17;;
5303;SDS011;2674;49.722;10.892;2022-10-26T17:01:55;27.30;;;14.43;;
5303;SDS011;2674;49.722;10.892;2022-10-26T17:04:21;27.20;;;13.50;;
5303;SDS011;2674;49.722;10.892;2022-10-26T17:06:48;18.00;;;10.97;;
5303;SDS011;2674;49.722;10.892;2022-10-26T17:09:14;16.50;;;11.60;;
5303;SDS011;2674;49.722;10.892;2022-10-26T17:11:40;17.63;;;9.70;;
5303;SDS011;2674;49.722;10.892;2022-10-26T17:14:06;13.80;;;8.60;;
5303;SDS011;2674;49.722;10.892;2022-10-26T17:16:32;14.20;;;9.13;;
5303;SDS011;2674;49.722;10.892;2022-10-26T17:18:59;12.07;;;8.20;;
5303;SDS011;2674;49.722;10.892;2022-10-26T17:21:29;16.70;;;8.40;;
5303;SDS011;2674;49.722;10.892;2022-10-26T17:23:59;11.67;;;8.67;;
5303;SDS011;2674;49.722;10.892;2022-10-26T17:26:26;17.47;;;9.43;;
5303;SDS011;2674;49.722;10.892;2022-10-26T17:28:53;16.13;;;10.40;;
5303;SDS011;2674;49.722;10.892;2022-10-26T17:31:23;19.53;;;10.13;;
5303;SDS011;2674;49.722;10.892;2022-10-26T17:33:49;16.40;;;9.30;;
5303;SDS011;2674;49.722;10.892;2022-10-26T17:36:17;11.43;;;7.87;;
5303;SDS011;2674;49.722;10.892;2022-10-26T17:38:45;19.20;;;8.60;;
5303;SDS011;2674;49.722;10.892;2022-10-26T17:41:13;13.60;;;7.17;;
5303;SDS011;2674;49.722;10.892;2022-10-26T17:43:41;12.30;;;8.80;;
5303;SDS011;2674;49.722;10.892;2022-10-26T17:46:12;10.90;;;6.60;;
5303;SDS011;2674;49.722;10.892;2022-10-26T17:48:40;11.17;;;7.03;;
5303;SDS011;2674;49.722;10.892;2022-10-26T17:51:08;11.47;;;6.90;;
5303;SDS011;2674;49.722;10.892;2022-10-26T17:53:38;10.30;;;6.97;;
5303;SDS011;2674;49.722;10.892;2022-10-26T17:56:05;10.70;;;7.77;;
5303;SDS011;2674;49.722;10.892;2022-10-26T17:58:34;12.13;;;7.90;;
5303;SDS011;2674;49.722;10.892;2022-10-26T18:01:01;18.93;;;6.93;;
5303;SDS011;2674;49.722;10.892;2022-10-26T18:03:29;11.23;;;5.80;;
5303;SDS011;2674;49.722;10.892;2022-10-26T18:05:55;11.83;;;6.20;;
5303;SDS011;2674;49.722;10.892;2022-10-26T18:08:21;16.80;;;6.37;;
5303;SDS011;2674;49.722;10.892;2022-10-26T18:10:47;14.60;;;5.97;;
5303;SDS011;2674;49.722;10.892;2022-10-26T18:13:19;10.70;;;5.90;;
5303;SDS011;2674;49.722;10.892;2022-10-26T18:15:45;12.20;;;7.27;;